sensor_id;sensor_type;location;lat;lon;timestamp;pressure;altitude;pressure_sealevel;temperature;humidity
45441;BME280;31189;38.790;-77.084;2023-12-28T00:02:23;100542.14;;;15.02;76.32
45441;BME280;31189;38.790;-77.084;2023-12-28T00:04:49;100555.75;;;15.24;75.50
45441;BME280;31189;38.790;-77.084;2023-12-28T00:07:14;100566.24;;;15.18;76.49
45441;BME280;31189;38.790;-77.084;2023-12-28T00:09:40;100561.53;;;16.11;72.79
45441;BME280;31189;38.790;-77.084;2023-12-28T00:12:06;100555.06;;;15.94;73.25
45441;BME280;31189;38.790;-77.084;2023-12-28T00:14:31;100567.55;;;16.37;71.76
45441;BME280;31189;38.790;-77.084;2023-12-28T00:16:57;100566.52;;;16.67;70.15
45441;BME280;31189;38.790;-77.084;2023-12-28T00:19:22;100575.57;;;15.76;73.69
45441;BME280;31189;38.790;-77.084;2023-12-28T00:21:48;100577.12;;;15.48;74.23
45441;BME280;31189;38.790;-77.084;2023-12-28T00:24:14;100571.15;;;15.56;75.09
45441;BME280;31189;38.790;-77.084;2023-12-28T00:26:39;100558.51;;;16.11;72.21
45441;BME280;31189;38.790;-77.084;2023-12-28T00:29:04;100568.23;;;15.76;72.79
45441;BME280;31189;38.790;-77.084;2023-12-28T00:31:30;100567.10;;;16.53;69.91
45441;BME280;31189;38.790;-77.084;2023-12-28T00:33:56;100564.72;;;16.74;69.23
45441;BME280;31189;38.790;-77.084;2023-12-28T00:36:21;100558.69;;;16.66;68.97
45441;BME280;31189;38.790;-77.084;2023-12-28T00:38:47;100546.48;;;16.72;69.38
45441;BME280;31189;38.790;-77.084;2023-12-28T00:41:13;100539.56;;;16.61;68.83
45441;BME280;31189;38.790;-77.084;2023-12-28T00:43:38;100542.77;;;16.39;68.45
45441;BME280;31189;38.790;-77.084;2023-12-28T00:46:04;100546.91;;;16.44;68.95
45441;BME280;31189;38.790;-77.084;2023-12-28T00:48:29;100564.75;;;16.57;69.14
45441;BME280;31189;38.790;-77.084;2023-12-28T00:50:55;100556.52;;;16.85;67.72
45441;BME280;31189;38.790;-77.084;2023-12-28T00:53:20;100558.10;;;16.73;66.93
45441;BME280;31189;38.790;-77.084;2023-12-28T00:55:46;100567.98;;;16.66;66.52
45441;BME280;31189;38.790;-77.084;2023-12-28T00:58:11;100564.30;;;16.87;66.24
45441;BME280;31189;38.790;-77.084;2023-12-28T01:00:37;100564.96;;;16.09;68.05
45441;BME280;31189;38.790;-77.084;2023-12-28T01:03:03;100555.84;;;16.10;68.57
45441;BME280;31189;38.790;-77.084;2023-12-28T01:05:28;100543.93;;;17.07;66.43
45441;BME280;31189;38.790;-77.084;2023-12-28T01:07:54;100547.62;;;16.96;66.18
45441;BME280;31189;38.790;-77.084;2023-12-28T01:10:19;100553.38;;;17.07;65.86
45441;BME280;31189;38.790;-77.084;2023-12-28T01:12:45;100552.72;;;16.76;66.04
45441;BME280;31189;38.790;-77.084;2023-12-28T01:15:11;100529.27;;;16.82;66.36
45441;BME280;31189;38.790;-77.084;2023-12-28T01:17:37;100540.66;;;16.24;67.01
45441;BME280;31189;38.790;-77.084;2023-12-28T01:20:02;100545.34;;;15.51;69.40
45441;BME280;31189;38.790;-77.084;2023-12-28T01:22:27;100534.44;;;17.17;66.42
45441;BME280;31189;38.790;-77.084;2023-12-28T01:24:53;100534.42;;;16.98;65.12
45441;BME280;31189;38.790;-77.084;2023-12-28T01:27:18;100515.38;;;17.37;64.79
45441;BME280;31189;38.790;-77.084;2023-12-28T01:29:44;100510.13;;;16.98;64.23
45441;BME280;31189;38.790;-77.084;2023-12-28T01:32:09;100516.63;;;16.77;64.66
45441;BME280;31189;38.790;-77.084;2023-12-28T01:34:35;100522.13;;;17.00;64.79
45441;BME280;31189;38.790;-77.084;2023-12-28T01:37:01;100540.39;;;17.29;64.33
45441;BME280;31189;38.790;-77.084;2023-12-28T01:39:26;100542.67;;;17.24;64.15
45441;BME280;31189;38.790;-77.084;2023-12-28T01:41:52;100538.37;;;17.21;63.96
45441;BME280;31189;38.790;-77.084;2023-12-28T01:44:17;100526.41;;;17.27;63.94
45441;BME280;31189;38.790;-77.084;2023-12-28T01:46:43;100528.89;;;17.39;63.69
45441;BME280;31189;38.790;-77.084;2023-12-28T01:49:08;100540.43;;;17.57;63.64
45441;BME280;31189;38.790;-77.084;2023-12-28T01:51:35;100541.25;;;17.46;63.55
45441;BME280;31189;38.790;-77.084;2023-12-28T01:54:00;100540.10;;;17.33;63.09
45441;BME280;31189;38.790;-77.084;2023-12-28T01:56:26;100536.76;;;17.39;63.42
45441;BME280;31189;38.790;-77.084;2023-12-28T01:58:53;100532.22;;;17.47;63.20
45441;BME280;31189;38.790;-77.084;2023-12-28T02:01:17;100524.69;;;17.54;63.12
45441;BME280;31189;38.790;-77.084;2023-12-28T02:03:42;100521.71;;;17.51;62.79
45441;BME280;31189;38.790;-77.084;2023-12-28T02:06:09;100516.64;;;17.55;62.91
45441;BME280;31189;38.790;-77.084;2023-12-28T02:08:36;100505.90;;;17.44;62.91
45441;BME280;31189;38.790;-77.084;2023-12-28T02:11:03;100489.77;;;17.55;62.70
45441;BME280;31189;38.790;-77.084;2023-12-28T02:13:24;100482.00;;;17.73;62.66
45441;BME280;31189;38.790;-77.084;2023-12-28T02:15:54;100486.11;;;17.09;62.89
45441;BME280;31189;38.790;-77.084;2023-12-28T02:18:19;100493.37;;;16.47;65.94
45441;BME280;31189;38.790;-77.084;2023-12-28T02:20:42;100502.55;;;16.78;65.20
45441;BME280;31189;38.790;-77.084;2023-12-28T02:23:10;100498.66;;;15.56;68.46
45441;BME280;31189;38.790;-77.084;2023-12-28T02:25:34;100498.00;;;16.91;65.43
45441;BME280;31189;38.790;-77.084;2023-12-28T02:27:58;100502.88;;;16.61;65.48
45441;BME280;31189;38.790;-77.084;2023-12-28T02:30:24;100496.86;;;16.87;64.79
45441;BME280;31189;38.790;-77.084;2023-12-28T02:32:57;100497.58;;;16.80;64.55
45441;BME280;31189;38.790;-77.084;2023-12-28T02:35:19;100500.79;;;16.34;66.58
45441;BME280;31189;38.790;-77.084;2023-12-28T02:37:41;100493.21;;;15.97;68.79
45441;BME280;31189;38.790;-77.084;2023-12-28T02:40:07;100483.83;;;16.78;66.55
45441;BME280;31189;38.790;-77.084;2023-12-28T02:42:31;100486.08;;;16.18;66.83
45441;BME280;31189;38.790;-77.084;2023-12-28T02:44:57;100484.22;;;16.46;66.47
45441;BME280;31189;38.790;-77.084;2023-12-28T02:47:21;100486.70;;;17.18;65.75
45441;BME280;31189;38.790;-77.084;2023-12-28T02:49:47;100488.41;;;16.80;65.03
45441;BME280;31189;38.790;-77.084;2023-12-28T02:52:16;100487.90;;;17.04;64.64
45441;BME280;31189;38.790;-77.084;2023-12-28T02:54:39;100486.83;;;17.32;63.76
45441;BME280;31189;38.790;-77.084;2023-12-28T02:57:02;100493.13;;;17.48;63.55
45441;BME280;31189;38.790;-77.084;2023-12-28T02:59:30;100493.60;;;17.53;63.60
45441;BME280;31189;38.790;-77.084;2023-12-28T03:01:55;100483.77;;;17.55;63.00
45441;BME280;31189;38.790;-77.084;2023-12-28T03:04:21;100476.67;;;17.86;62.76
45441;BME280;31189;38.790;-77.084;2023-12-28T03:06:45;100469.87;;;17.70;62.54
45441;BME280;31189;38.790;-77.084;2023-12-28T03:09:11;100471.77;;;17.65;62.23
45441;BME280;31189;38.790;-77.084;2023-12-28T03:11:36;100468.53;;;17.68;61.84
45441;BME280;31189;38.790;-77.084;2023-12-28T03:14:01;100475.02;;;17.53;61.84
45441;BME280;31189;38.790;-77.084;2023-12-28T03:16:27;100479.60;;;17.82;61.76
45441;BME280;31189;38.790;-77.084;2023-12-28T03:18:54;100488.32;;;17.90;61.58
45441;BME280;31189;38.790;-77.084;2023-12-28T03:21:17;100496.35;;;17.65;61.51
45441;BME280;31189;38.790;-77.084;2023-12-28T03:23:43;100488.19;;;17.88;61.33
45441;BME280;31189;38.790;-77.084;2023-12-28T03:26:08;100497.51;;;17.92;61.44
45441;BME280;31189;38.790;-77.084;2023-12-28T03:28:35;100500.00;;;18.00;61.44
45441;BME280;31189;38.790;-77.084;2023-12-28T03:31:02;100501.45;;;17.99;61.22
45441;BME280;31189;38.790;-77.084;2023-12-28T03:33:28;100497.37;;;17.75;60.96
45441;BME280;31189;38.790;-77.084;2023-12-28T03:35:50;100499.32;;;18.04;60.91
45441;BME280;31189;38.790;-77.084;2023-12-28T03:38:19;100500.01;;;17.99;60.81
45441;BME280;31189;38.790;-77.084;2023-12-28T03:40:42;100513.09;;;18.11;60.99
45441;BME280;31189;38.790;-77.084;2023-12-28T03:43:09;100514.62;;;18.00;60.68
45441;BME280;31189;38.790;-77.084;2023-12-28T03:45:32;100514.59;;;17.78;60.59
45441;BME280;31189;38.790;-77.084;2023-12-28T03:47:59;100493.87;;;18.10;60.61
45441;BME280;31189;38.790;-77.084;2023-12-28T03:50:24;100489.16;;;17.85;60.48
45441;BME280;31189;38.790;-77.084;2023-12-28T03:52:49;100480.60;;;18.08;60.38
45441;BME280;31189;38.790;-77.084;2023-12-28T03:55:15;100479.34;;;17.66;60.40
45441;BME280;31189;38.790;-77.084;2023-12-28T03:57:40;100485.00;;;17.93;60.25
45441;BME280;31189;38.790;-77.084;2023-12-28T04:00:07;100492.85;;;17.97;60.31
45441;BME280;31189;38.790;-77.084;2023-12-28T04:02:32;100486.52;;;17.94;60.07
45441;BME280;31189;38.790;-77.084;2023-12-28T04:04:56;100490.42;;;17.94;60.05
45441;BME280;31189;38.790;-77.084;2023-12-28T04:07:22;100484.33;;;17.91;60.02
45441;BME280;31189;38.790;-77.084;2023-12-28T04:09:46;100484.03;;;18.18;60.11
45441;BME280;31189;38.790;-77.084;2023-12-28T04:12:12;100476.51;;;18.21;60.09
45441;BME280;31189;38.790;-77.084;2023-12-28T04:14:37;100470.33;;;17.98;59.87
45441;BME280;31189;38.790;-77.084;2023-12-28T04:17:03;100457.09;;;17.92;59.90
45441;BME280;31189;38.790;-77.084;2023-12-28T04:19:28;100450.83;;;17.99;60.12
45441;BME280;31189;38.790;-77.084;2023-12-28T04:21:54;100447.22;;;17.90;60.09
45441;BME280;31189;38.790;-77.084;2023-12-28T04:24:19;100447.37;;;17.85;60.04
45441;BME280;31189;38.790;-77.084;2023-12-28T04:26:44;100444.19;;;18.05;60.01
45441;BME280;31189;38.790;-77.084;2023-12-28T04:29:10;100443.50;;;17.89;59.95
45441;BME280;31189;38.790;-77.084;2023-12-28T04:31:40;100445.20;;;18.10;59.90
45441;BME280;31189;38.790;-77.084;2023-12-28T04:34:01;100456.26;;;17.86;60.01
45441;BME280;31189;38.790;-77.084;2023-12-28T04:36:27;100443.84;;;17.83;59.87
45441;BME280;31189;38.790;-77.084;2023-12-28T04:38:52;100433.08;;;18.06;59.99
45441;BME280;31189;38.790;-77.084;2023-12-28T04:41:19;100442.67;;;17.54;60.51
45441;BME280;31189;38.790;-77.084;2023-12-28T04:43:43;100437.79;;;17.63;60.36
45441;BME280;31189;38.790;-77.084;2023-12-28T04:46:08;100435.45;;;17.53;60.62
45441;BME280;31189;38.790;-77.084;2023-12-28T04:48:35;100436.59;;;17.65;60.63
45441;BME280;31189;38.790;-77.084;2023-12-28T04:51:02;100431.09;;;17.92;60.82
45441;BME280;31189;38.790;-77.084;2023-12-28T04:53:25;100422.63;;;17.76;60.56
45441;BME280;31189;38.790;-77.084;2023-12-28T04:55:51;100422.45;;;17.64;61.14
45441;BME280;31189;38.790;-77.084;2023-12-28T04:58:16;100419.92;;;17.60;60.51
45441;BME280;31189;38.790;-77.084;2023-12-28T05:00:42;100421.12;;;17.90;60.85
45441;BME280;31189;38.790;-77.084;2023-12-28T05:03:07;100417.42;;;17.97;60.97
45441;BME280;31189;38.790;-77.084;2023-12-28T05:05:32;100418.40;;;17.59;60.45
45441;BME280;31189;38.790;-77.084;2023-12-28T05:07:58;100408.33;;;17.92;60.60
45441;BME280;31189;38.790;-77.084;2023-12-28T05:10:23;100399.04;;;17.76;60.44
45441;BME280;31189;38.790;-77.084;2023-12-28T05:12:48;100396.87;;;17.46;60.66
45441;BME280;31189;38.790;-77.084;2023-12-28T05:15:14;100395.99;;;17.96;60.69
45441;BME280;31189;38.790;-77.084;2023-12-28T05:17:39;100399.19;;;17.69;60.66
45441;BME280;31189;38.790;-77.084;2023-12-28T05:20:06;100395.67;;;18.01;60.44
45441;BME280;31189;38.790;-77.084;2023-12-28T05:22:31;100390.70;;;17.99;60.26
45441;BME280;31189;38.790;-77.084;2023-12-28T05:24:56;100389.87;;;17.73;60.15
45441;BME280;31189;38.790;-77.084;2023-12-28T05:27:22;100388.54;;;18.03;60.23
45441;BME280;31189;38.790;-77.084;2023-12-28T05:29:47;100384.62;;;17.63;60.13
45441;BME280;31189;38.790;-77.084;2023-12-28T05:32:13;100378.14;;;17.60;60.38
45441;BME280;31189;38.790;-77.084;2023-12-28T05:34:38;100379.44;;;17.45;60.90
45441;BME280;31189;38.790;-77.084;2023-12-28T05:37:04;100376.89;;;17.48;60.76
45441;BME280;31189;38.790;-77.084;2023-12-28T05:39:29;100373.70;;;17.83;60.63
45441;BME280;31189;38.790;-77.084;2023-12-28T05:41:55;100370.43;;;17.87;60.44
45441;BME280;31189;38.790;-77.084;2023-12-28T05:44:21;100372.33;;;17.73;60.33
45441;BME280;31189;38.790;-77.084;2023-12-28T05:46:46;100380.37;;;18.05;60.19
45441;BME280;31189;38.790;-77.084;2023-12-28T05:49:11;100384.17;;;18.12;60.01
45441;BME280;31189;38.790;-77.084;2023-12-28T05:51:38;100388.48;;;17.54;59.80
45441;BME280;31189;38.790;-77.084;2023-12-28T05:54:03;100391.02;;;17.76;59.59
45441;BME280;31189;38.790;-77.084;2023-12-28T05:56:28;100389.43;;;17.94;59.98
45441;BME280;31189;38.790;-77.084;2023-12-28T05:58:53;100387.46;;;17.64;59.99
45441;BME280;31189;38.790;-77.084;2023-12-28T06:01:19;100384.05;;;17.75;59.82
45441;BME280;31189;38.790;-77.084;2023-12-28T06:03:44;100386.46;;;18.11;59.82
45441;BME280;31189;38.790;-77.084;2023-12-28T06:06:10;100391.29;;;17.73;59.58
45441;BME280;31189;38.790;-77.084;2023-12-28T06:08:35;100392.16;;;17.46;59.80
45441;BME280;31189;38.790;-77.084;2023-12-28T06:11:01;100390.64;;;17.89;59.99
45441;BME280;31189;38.790;-77.084;2023-12-28T06:13:27;100390.79;;;17.70;60.44
45441;BME280;31189;38.790;-77.084;2023-12-28T06:15:52;100381.10;;;17.93;60.22
45441;BME280;31189;38.790;-77.084;2023-12-28T06:18:18;100378.43;;;17.89;60.05
45441;BME280;31189;38.790;-77.084;2023-12-28T06:20:43;100375.10;;;17.87;60.09
45441;BME280;31189;38.790;-77.084;2023-12-28T06:23:11;100374.47;;;17.49;60.25
45441;BME280;31189;38.790;-77.084;2023-12-28T06:25:35;100367.78;;;17.62;60.11
45441;BME280;31189;38.790;-77.084;2023-12-28T06:28:00;100362.40;;;17.28;60.63
45441;BME280;31189;38.790;-77.084;2023-12-28T06:30:26;100361.83;;;17.19;61.41
45441;BME280;31189;38.790;-77.084;2023-12-28T06:32:51;100361.89;;;17.17;61.20
45441;BME280;31189;38.790;-77.084;2023-12-28T06:35:16;100360.68;;;17.26;61.41
45441;BME280;31189;38.790;-77.084;2023-12-28T06:37:43;100361.56;;;17.07;61.35
45441;BME280;31189;38.790;-77.084;2023-12-28T06:40:09;100363.88;;;17.22;61.22
45441;BME280;31189;38.790;-77.084;2023-12-28T06:42:33;100361.30;;;17.48;60.91
45441;BME280;31189;38.790;-77.084;2023-12-28T06:44:58;100360.97;;;17.60;60.39
45441;BME280;31189;38.790;-77.084;2023-12-28T06:47:24;100361.69;;;17.42;60.38
45441;BME280;31189;38.790;-77.084;2023-12-28T06:49:49;100357.85;;;17.59;59.93
45441;BME280;31189;38.790;-77.084;2023-12-28T06:52:15;100360.57;;;17.66;59.88
45441;BME280;31189;38.790;-77.084;2023-12-28T06:54:40;100369.27;;;17.52;59.48
45441;BME280;31189;38.790;-77.084;2023-12-28T06:57:06;100373.26;;;17.72;59.20
45441;BME280;31189;38.790;-77.084;2023-12-28T06:59:32;100383.74;;;17.56;59.92
45441;BME280;31189;38.790;-77.084;2023-12-28T07:01:57;100383.51;;;17.38;59.88
45441;BME280;31189;38.790;-77.084;2023-12-28T07:04:23;100384.06;;;17.26;59.43
45441;BME280;31189;38.790;-77.084;2023-12-28T07:06:48;100388.23;;;17.47;59.25
45441;BME280;31189;38.790;-77.084;2023-12-28T07:09:14;100392.37;;;17.20;60.09
45441;BME280;31189;38.790;-77.084;2023-12-28T07:11:39;100393.09;;;16.98;60.75
45441;BME280;31189;38.790;-77.084;2023-12-28T07:14:05;100394.46;;;16.40;62.02
45441;BME280;31189;38.790;-77.084;2023-12-28T07:16:30;100392.40;;;16.98;61.60
45441;BME280;31189;38.790;-77.084;2023-12-28T07:18:56;100394.95;;;16.87;61.64
45441;BME280;31189;38.790;-77.084;2023-12-28T07:21:22;100399.47;;;16.12;62.44
45441;BME280;31189;38.790;-77.084;2023-12-28T07:23:47;100397.29;;;16.39;61.92
45441;BME280;31189;38.790;-77.084;2023-12-28T07:26:13;100393.12;;;16.74;61.37
45441;BME280;31189;38.790;-77.084;2023-12-28T07:28:38;100384.19;;;15.44;65.79
45441;BME280;31189;38.790;-77.084;2023-12-28T07:31:04;100384.97;;;16.07;63.17
45441;BME280;31189;38.790;-77.084;2023-12-28T07:33:30;100381.30;;;16.40;63.34
45441;BME280;31189;38.790;-77.084;2023-12-28T07:35:57;100381.62;;;16.17;63.46
45441;BME280;31189;38.790;-77.084;2023-12-28T07:38:21;100387.80;;;12.71;74.52
45441;BME280;31189;38.790;-77.084;2023-12-28T07:40:46;100390.55;;;15.15;66.87
45441;BME280;31189;38.790;-77.084;2023-12-28T07:43:12;100389.93;;;14.75;70.54
45441;BME280;31189;38.790;-77.084;2023-12-28T07:45:38;100391.21;;;15.26;68.22
45441;BME280;31189;38.790;-77.084;2023-12-28T07:48:04;100387.78;;;14.74;68.27
45441;BME280;31189;38.790;-77.084;2023-12-28T07:50:29;100385.92;;;15.38;65.85
45441;BME280;31189;38.790;-77.084;2023-12-28T07:52:54;100376.26;;;14.50;69.79
45441;BME280;31189;38.790;-77.084;2023-12-28T07:55:20;100374.49;;;15.06;67.71
45441;BME280;31189;38.790;-77.084;2023-12-28T07:57:46;100370.83;;;15.07;66.58
45441;BME280;31189;38.790;-77.084;2023-12-28T08:00:12;100366.13;;;15.13;67.67
45441;BME280;31189;38.790;-77.084;2023-12-28T08:02:37;100361.13;;;15.35;66.54
45441;BME280;31189;38.790;-77.084;2023-12-28T08:05:03;100363.98;;;15.11;66.52
45441;BME280;31189;38.790;-77.084;2023-12-28T08:07:28;100366.30;;;16.09;64.98
45441;BME280;31189;38.790;-77.084;2023-12-28T08:09:53;100365.14;;;13.36;71.09
45441;BME280;31189;38.790;-77.084;2023-12-28T08:12:19;100360.35;;;14.07;73.18
45441;BME280;31189;38.790;-77.084;2023-12-28T08:14:45;100358.43;;;13.41;74.32
45441;BME280;31189;38.790;-77.084;2023-12-28T08:17:10;100355.90;;;14.97;69.74
45441;BME280;31189;38.790;-77.084;2023-12-28T08:19:36;100353.76;;;14.79;70.26
45441;BME280;31189;38.790;-77.084;2023-12-28T08:22:02;100357.22;;;14.34;70.33
45441;BME280;31189;38.790;-77.084;2023-12-28T08:24:27;100352.65;;;12.38;80.23
45441;BME280;31189;38.790;-77.084;2023-12-28T08:26:53;100347.77;;;13.78;73.02
45441;BME280;31189;38.790;-77.084;2023-12-28T08:29:18;100350.03;;;14.43;72.94
45441;BME280;31189;38.790;-77.084;2023-12-28T08:31:44;100352.81;;;13.57;73.11
45441;BME280;31189;38.790;-77.084;2023-12-28T08:34:10;100347.80;;;13.99;73.44
45441;BME280;31189;38.790;-77.084;2023-12-28T08:36:35;100348.15;;;14.60;68.68
45441;BME280;31189;38.790;-77.084;2023-12-28T08:39:01;100352.33;;;14.80;69.63
45441;BME280;31189;38.790;-77.084;2023-12-28T08:41:27;100351.98;;;14.52;70.07
45441;BME280;31189;38.790;-77.084;2023-12-28T08:43:52;100351.50;;;14.66;69.27
45441;BME280;31189;38.790;-77.084;2023-12-28T08:46:18;100355.93;;;13.27;74.23
45441;BME280;31189;38.790;-77.084;2023-12-28T08:48:43;100356.32;;;14.11;71.53
45441;BME280;31189;38.790;-77.084;2023-12-28T08:51:10;100354.94;;;12.54;76.94
45441;BME280;31189;38.790;-77.084;2023-12-28T08:53:34;100347.72;;;14.15;72.23
45441;BME280;31189;38.790;-77.084;2023-12-28T08:56:00;100342.57;;;14.07;70.73
45441;BME280;31189;38.790;-77.084;2023-12-28T08:58:26;100342.22;;;12.84;75.20
45441;BME280;31189;38.790;-77.084;2023-12-28T09:00:51;100346.22;;;13.66;71.68
45441;BME280;31189;38.790;-77.084;2023-12-28T09:03:17;100345.10;;;12.47;75.60
45441;BME280;31189;38.790;-77.084;2023-12-28T09:05:42;100345.81;;;13.24;75.58
45441;BME280;31189;38.790;-77.084;2023-12-28T09:08:08;100344.89;;;13.56;73.99
45441;BME280;31189;38.790;-77.084;2023-12-28T09:10:34;100340.74;;;14.21;69.15
45441;BME280;31189;38.790;-77.084;2023-12-28T09:12:59;100340.60;;;13.98;69.93
45441;BME280;31189;38.790;-77.084;2023-12-28T09:15:25;100339.01;;;14.03;69.40
45441;BME280;31189;38.790;-77.084;2023-12-28T09:17:50;100339.94;;;13.42;72.51
45441;BME280;31189;38.790;-77.084;2023-12-28T09:20:16;100342.12;;;13.43;71.11
45441;BME280;31189;38.790;-77.084;2023-12-28T09:22:42;100343.68;;;11.46;82.34
45441;BME280;31189;38.790;-77.084;2023-12-28T09:25:08;100347.54;;;12.28;79.10
45441;BME280;31189;38.790;-77.084;2023-12-28T09:27:33;100350.86;;;12.25;77.74
45441;BME280;31189;38.790;-77.084;2023-12-28T09:29:58;100353.46;;;13.02;73.27
45441;BME280;31189;38.790;-77.084;2023-12-28T09:32:24;100356.01;;;12.80;76.37
45441;BME280;31189;38.790;-77.084;2023-12-28T09:34:49;100345.46;;;12.81;74.69
45441;BME280;31189;38.790;-77.084;2023-12-28T09:37:15;100343.11;;;11.37;81.27
45441;BME280;31189;38.790;-77.084;2023-12-28T09:39:41;100339.01;;;12.26;78.71
45441;BME280;31189;38.790;-77.084;2023-12-28T09:42:13;100334.79;;;13.61;72.82
45441;BME280;31189;38.790;-77.084;2023-12-28T09:44:32;100339.41;;;12.74;74.47
45441;BME280;31189;38.790;-77.084;2023-12-28T09:46:58;100340.92;;;13.78;71.10
45441;BME280;31189;38.790;-77.084;2023-12-28T09:49:23;100341.67;;;11.57;79.30
45441;BME280;31189;38.790;-77.084;2023-12-28T09:51:49;100341.44;;;13.81;70.77
45441;BME280;31189;38.790;-77.084;2023-12-28T09:54:14;100348.29;;;13.20;70.72
45441;BME280;31189;38.790;-77.084;2023-12-28T09:56:40;100356.29;;;13.35;70.88
45441;BME280;31189;38.790;-77.084;2023-12-28T09:59:06;100359.64;;;12.43;76.14
45441;BME280;31189;38.790;-77.084;2023-12-28T10:01:32;100353.52;;;13.36;72.77
45441;BME280;31189;38.790;-77.084;2023-12-28T10:03:57;100351.64;;;10.16;85.08
45441;BME280;31189;38.790;-77.084;2023-12-28T10:06:22;100364.46;;;12.16;78.00
45441;BME280;31189;38.790;-77.084;2023-12-28T10:08:48;100372.70;;;10.77;84.18
45441;BME280;31189;38.790;-77.084;2023-12-28T10:11:14;100389.63;;;12.74;74.72
45441;BME280;31189;38.790;-77.084;2023-12-28T10:13:40;100387.26;;;9.59;91.48
45441;BME280;31189;38.790;-77.084;2023-12-28T10:16:07;100387.11;;;11.55;82.80
45441;BME280;31189;38.790;-77.084;2023-12-28T10:18:30;100392.03;;;10.82;84.32
45441;BME280;31189;38.790;-77.084;2023-12-28T10:20:56;100394.39;;;13.21;73.98
45441;BME280;31189;38.790;-77.084;2023-12-28T10:23:21;100391.93;;;11.72;75.49
45441;BME280;31189;38.790;-77.084;2023-12-28T10:25:47;100398.85;;;11.61;78.26
45441;BME280;31189;38.790;-77.084;2023-12-28T10:28:13;100400.52;;;12.42;75.52
45441;BME280;31189;38.790;-77.084;2023-12-28T10:30:38;100402.14;;;13.33;72.74
45441;BME280;31189;38.790;-77.084;2023-12-28T10:33:05;100407.93;;;13.79;70.59
45441;BME280;31189;38.790;-77.084;2023-12-28T10:35:29;100405.50;;;13.88;69.06
45441;BME280;31189;38.790;-77.084;2023-12-28T10:37:59;100408.70;;;11.89;74.53
45441;BME280;31189;38.790;-77.084;2023-12-28T10:40:21;100414.25;;;10.59;82.87
45441;BME280;31189;38.790;-77.084;2023-12-28T10:42:51;100418.82;;;11.83;77.65
45441;BME280;31189;38.790;-77.084;2023-12-28T10:45:12;100423.44;;;12.89;72.68
45441;BME280;31189;38.790;-77.084;2023-12-28T10:47:39;100430.32;;;12.17;75.05
45441;BME280;31189;38.790;-77.084;2023-12-28T10:50:04;100430.72;;;12.17;75.81
45441;BME280;31189;38.790;-77.084;2023-12-28T10:52:30;100428.28;;;12.56;76.43
45441;BME280;31189;38.790;-77.084;2023-12-28T10:55:04;100431.12;;;13.32;72.86
45441;BME280;31189;38.790;-77.084;2023-12-28T10:57:23;100423.29;;;11.50;80.41
45441;BME280;31189;38.790;-77.084;2023-12-28T10:59:52;100425.32;;;12.06;76.84
45441;BME280;31189;38.790;-77.084;2023-12-28T11:02:14;100431.68;;;13.22;72.36
45441;BME280;31189;38.790;-77.084;2023-12-28T11:04:42;100434.00;;;12.58;75.17
45441;BME280;31189;38.790;-77.084;2023-12-28T11:07:03;100435.68;;;12.63;77.17
45441;BME280;31189;38.790;-77.084;2023-12-28T11:09:30;100436.34;;;11.94;78.24
45441;BME280;31189;38.790;-77.084;2023-12-28T11:11:54;100437.67;;;10.72;87.13
45441;BME280;31189;38.790;-77.084;2023-12-28T11:14:20;100437.25;;;10.50;87.50
45441;BME280;31189;38.790;-77.084;2023-12-28T11:16:45;100457.15;;;12.33;80.50
45441;BME280;31189;38.790;-77.084;2023-12-28T11:19:11;100456.56;;;12.09;77.25
45441;BME280;31189;38.790;-77.084;2023-12-28T11:21:36;100449.11;;;12.62;77.72
45441;BME280;31189;38.790;-77.084;2023-12-28T11:24:02;100448.82;;;12.62;74.70
45441;BME280;31189;38.790;-77.084;2023-12-28T11:26:27;100451.11;;;13.32;71.67
45441;BME280;31189;38.790;-77.084;2023-12-28T11:29:02;100449.13;;;13.62;70.08
45441;BME280;31189;38.790;-77.084;2023-12-28T11:31:18;100458.36;;;8.95;89.91
45441;BME280;31189;38.790;-77.084;2023-12-28T11:33:45;100464.09;;;11.76;79.32
45441;BME280;31189;38.790;-77.084;2023-12-28T11:36:09;100468.11;;;12.61;75.84
45441;BME280;31189;38.790;-77.084;2023-12-28T11:38:34;100469.44;;;12.32;75.52
45441;BME280;31189;38.790;-77.084;2023-12-28T11:41:04;100471.94;;;12.10;75.58
45441;BME280;31189;38.790;-77.084;2023-12-28T11:43:27;100471.85;;;9.55;87.35
45441;BME280;31189;38.790;-77.084;2023-12-28T11:45:54;100479.49;;;12.54;74.75
45441;BME280;31189;38.790;-77.084;2023-12-28T11:48:22;100482.49;;;13.37;71.03
45441;BME280;31189;38.790;-77.084;2023-12-28T11:50:42;100483.46;;;10.75;77.10
45441;BME280;31189;38.790;-77.084;2023-12-28T11:53:07;100488.65;;;13.04;71.72
45441;BME280;31189;38.790;-77.084;2023-12-28T11:55:33;100485.43;;;13.22;69.61
45441;BME280;31189;38.790;-77.084;2023-12-28T11:57:59;100483.25;;;13.70;68.66
45441;BME280;31189;38.790;-77.084;2023-12-28T12:00:24;100475.33;;;12.96;70.90
45441;BME280;31189;38.790;-77.084;2023-12-28T12:02:50;100469.76;;;12.38;70.86
45441;BME280;31189;38.790;-77.084;2023-12-28T12:05:15;100476.48;;;13.61;68.58
45441;BME280;31189;38.790;-77.084;2023-12-28T12:07:41;100477.48;;;13.93;65.68
45441;BME280;31189;38.790;-77.084;2023-12-28T12:10:06;100482.72;;;13.88;65.86
45441;BME280;31189;38.790;-77.084;2023-12-28T12:12:31;100490.26;;;11.08;75.87
45441;BME280;31189;38.790;-77.084;2023-12-28T12:14:57;100486.07;;;13.41;69.16
45441;BME280;31189;38.790;-77.084;2023-12-28T12:17:22;100474.15;;;14.51;64.78
45441;BME280;31189;38.790;-77.084;2023-12-28T12:19:48;100466.84;;;13.17;67.30
45441;BME280;31189;38.790;-77.084;2023-12-28T12:22:14;100462.45;;;14.38;63.44